Time,TemperatureF,DewpointF,PressureIn,WindDirection,WindDirectionDegrees,WindSpeedMPH,WindSpeedGustMPH,Humidity,HourlyPrecipIn,Conditions,Clouds,dailyrainin,SoftwareType,DateUTC
2013-02-18 00:00:00,24.1,11.1,30.32,ENE,61,0.0,0.0,57,0.00,,,0.00,meteohub,2013-02-18 05:00:00,
2013-02-18 00:05:00,23.9,10.9,30.32,NNE,23,0.0,1.0,57,0.00,,,0.00,meteohub,2013-02-18 05:05:00,
2013-02-18 00:10:00,23.7,11.1,30.32,NNE,23,0.0,1.0,58,0.00,,,0.00,meteohub,2013-02-18 05:10:00,
2013-02-18 00:15:00,23.5,11.3,30.32,NNE,23,0.0,1.0,59,0.00,,,0.00,meteohub,2013-02-18 05:15:00,
2013-02-18 00:20:00,23.5,10.9,30.32,NNE,23,0.0,1.0,58,0.00,,,0.00,meteohub,2013-02-18 05:20:00,
2013-02-18 00:25:00,23.4,11.1,30.32,NNE,23,0.0,1.0,59,0.00,,,0.00,meteohub,2013-02-18 05:25:00,
2013-02-18 00:30:00,23.2,11.3,30.32,NNE,23,0.0,1.0,60,0.00,,,0.00,meteohub,2013-02-18 05:30:00,
2013-02-18 00:35:00,23.0,12.2,30.32,NE,37,0.0,0.0,63,0.00,,,0.00,meteohub,2013-02-18 05:35:00,
2013-02-18 00:40:00,22.6,12.7,30.32,NE,37,0.0,0.0,65,0.00,,,0.00,meteohub,2013-02-18 05:40:00,
2013-02-18 00:45:00,22.3,12.0,30.32,NE,35,0.0,0.0,64,0.00,,,0.00,meteohub,2013-02-18 05:45:00,
2013-02-18 00:50:00,22.3,12.7,30.33,West,281,0.0,0.0,66,0.00,,,0.00,meteohub,2013-02-18 05:50:00,
2013-02-18 00:55:00,22.3,13.6,30.33,West,281,0.0,0.0,69,0.00,,,0.00,meteohub,2013-02-18 05:55:00,
2013-02-18 01:00:00,22.3,13.3,30.33,WNW,284,0.0,0.0,68,0.00,,,0.00,meteohub,2013-02-18 06:00:00,
2013-02-18 01:05:00,21.9,13.3,30.33,WNW,286,0.0,0.0,69,0.00,,,0.00,meteohub,2013-02-18 06:05:00,
2013-02-18 01:10:00,21.6,13.3,30.33,WNW,287,0.0,0.0,70,0.00,,,0.00,meteohub,2013-02-18 06:10:00,
2013-02-18 01:15:00,21.4,14.0,30.33,WNW,287,0.0,0.0,73,0.00,,,0.00,meteohub,2013-02-18 06:15:00,
2013-02-18 01:20:00,21.4,13.5,30.33,WNW,286,0.0,0.0,71,0.00,,,0.00,meteohub,2013-02-18 06:20:00,
2013-02-18 01:25:00,21.2,13.6,30.33,WNW,286,0.0,0.0,72,0.00,,,0.00,meteohub,2013-02-18 06:25:00,
2013-02-18 01:30:00,20.8,13.8,30.33,WNW,286,0.0,0.0,74,0.00,,,0.00,meteohub,2013-02-18 06:30:00,
2013-02-18 01:35:00,20.7,14.0,30.34,WNW,286,0.0,0.0,75,0.00,,,0.00,meteohub,2013-02-18 06:35:00,
2013-02-18 01:40:00,20.7,13.1,30.34,WNW,287,0.0,0.0,72,0.00,,,0.00,meteohub,2013-02-18 06:40:00,
2013-02-18 01:45:00,20.8,12.9,30.33,NW,312,0.0,0.0,71,0.00,,,0.00,meteohub,2013-02-18 06:45:00,
2013-02-18 01:50:00,20.8,12.6,30.33,NW,312,0.0,0.0,70,0.00,,,0.00,meteohub,2013-02-18 06:50:00,
2013-02-18 01:55:00,20.5,12.6,30.33,NW,311,0.0,0.0,71,0.00,,,0.00,meteohub,2013-02-18 06:55:00,
2013-02-18 02:00:00,20.7,12.0,30.33,NW,312,0.0,0.0,69,0.00,,,0.00,meteohub,2013-02-18 07:00:00,
2013-02-18 02:05:00,20.7,12.7,30.33,NW,312,0.0,0.0,71,0.00,,,0.00,meteohub,2013-02-18 07:05:00,
2013-02-18 02:10:00,20.5,12.9,30.33,NW,315,0.0,0.0,72,0.00,,,0.00,meteohub,2013-02-18 07:10:00,
2013-02-18 02:15:00,20.7,12.7,30.34,West,266,0.0,0.0,71,0.00,,,0.00,meteohub,2013-02-18 07:15:00,
2013-02-18 02:20:00,20.8,12.6,30.34,West,269,0.0,0.0,70,0.00,,,0.00,meteohub,2013-02-18 07:20:00,
2013-02-18 02:25:00,20.8,12.6,30.34,West,269,0.0,0.0,70,0.00,,,0.00,meteohub,2013-02-18 07:25:00,
2013-02-18 02:30:00,20.1,12.2,30.34,West,269,0.0,0.0,71,0.00,,,0.00,meteohub,2013-02-18 07:30:00,
2013-02-18 02:35:00,19.8,12.6,30.34,West,269,0.0,0.0,73,0.00,,,0.00,meteohub,2013-02-18 07:35:00,
2013-02-18 02:41:00,19.6,12.6,30.34,West,269,0.0,0.0,74,0.00,,,0.00,meteohub,2013-02-18 07:41:00,
2013-02-18 02:46:00,19.2,12.6,30.34,West,269,0.0,0.0,75,0.00,,,0.00,meteohub,2013-02-18 07:46:00,
2013-02-18 02:51:00,19.0,12.4,30.34,West,269,0.0,0.0,75,0.00,,,0.00,meteohub,2013-02-18 07:51:00,
2013-02-18 02:56:00,19.2,12.4,30.35,West,269,0.0,0.0,74,0.00,,,0.00,meteohub,2013-02-18 07:56:00,
2013-02-18 03:01:00,19.6,12.4,30.35,West,269,0.0,0.0,73,0.00,,,0.00,meteohub,2013-02-18 08:01:00,
2013-02-18 03:06:00,19.2,12.6,30.35,West,269,0.0,0.0,75,0.00,,,0.00,meteohub,2013-02-18 08:06:00,
2013-02-18 03:11:00,19.2,12.6,30.35,West,269,0.0,0.0,75,0.00,,,0.00,meteohub,2013-02-18 08:11:00,
2013-02-18 03:16:00,19.2,12.4,30.35,West,269,0.0,0.0,74,0.00,,,0.00,meteohub,2013-02-18 08:16:00,
2013-02-18 03:21:00,19.0,12.4,30.35,West,269,0.0,0.0,75,0.00,,,0.00,meteohub,2013-02-18 08:21:00,
2013-02-18 03:26:00,19.4,12.7,30.35,West,269,0.0,0.0,75,0.00,,,0.00,meteohub,2013-02-18 08:26:00,
2013-02-18 03:31:00,19.4,12.7,30.35,West,269,0.0,0.0,75,0.00,,,0.00,meteohub,2013-02-18 08:31:00,
2013-02-18 07:43:00,18.0,15.8,30.39,North,-999,-999.0,-999.0,91,-99.99,,,0.00,meteohub,2013-02-18 12:43:00,
2013-02-18 07:48:00,18.3,15.8,30.39,North,-999,-999.0,-999.0,90,0.00,,,0.00,meteohub,2013-02-18 12:48:00,
2013-02-18 07:53:00,18.9,16.2,30.39,NW,307,0.0,-999.0,89,0.00,,,0.00,meteohub,2013-02-18 12:53:00,
2013-02-18 07:58:00,19.8,16.7,30.40,NW,308,0.0,0.0,88,0.00,,,0.00,meteohub,2013-02-18 12:58:00,
2013-02-18 08:03:00,20.5,17.4,30.40,NW,308,0.0,0.0,88,0.00,,,0.00,meteohub,2013-02-18 13:03:00,
2013-02-18 08:08:00,21.7,17.6,30.40,SW,236,0.0,0.0,84,0.00,,,0.00,meteohub,2013-02-18 13:08:00,
2013-02-18 08:13:00,22.8,18.1,30.41,SW,236,0.0,0.0,82,0.00,,,0.00,meteohub,2013-02-18 13:13:00,
2013-02-18 08:18:00,24.1,18.5,30.41,SW,236,0.0,0.0,79,0.00,,,0.00,meteohub,2013-02-18 13:18:00,
2013-02-18 08:24:00,24.6,19.0,30.41,ESE,110,0.0,0.0,79,0.00,,,0.00,meteohub,2013-02-18 13:24:00,
2013-02-18 08:29:00,25.2,19.2,30.41,SE,143,0.0,0.0,78,0.00,,,0.00,meteohub,2013-02-18 13:29:00,
2013-02-18 08:34:00,26.2,18.9,30.42,SE,143,0.0,1.0,73,0.00,,,0.00,meteohub,2013-02-18 13:34:00,
2013-02-18 08:39:00,26.8,18.7,30.42,East,87,0.0,1.0,71,0.00,,,0.00,meteohub,2013-02-18 13:39:00,
2013-02-18 08:44:00,26.8,18.7,30.41,East,82,0.0,1.0,71,0.00,,,0.00,meteohub,2013-02-18 13:44:00,
2013-02-18 08:49:00,27.0,18.5,30.42,East,95,0.0,1.0,70,0.00,,,0.00,meteohub,2013-02-18 13:49:00,
2013-02-18 08:54:00,28.4,19.2,30.42,SE,125,0.0,1.0,68,0.00,,,0.00,meteohub,2013-02-18 13:54:00,
2013-02-18 08:59:00,29.7,19.4,30.42,ESE,115,0.0,1.0,65,0.00,,,0.00,meteohub,2013-02-18 13:59:00,
2013-02-18 09:04:00,29.8,17.2,30.42,ESE,111,0.0,2.0,59,0.00,,,0.00,meteohub,2013-02-18 14:04:00,
2013-02-18 09:09:00,30.0,17.4,30.42,East,96,0.0,2.0,59,0.00,,,0.00,meteohub,2013-02-18 14:09:00,
2013-02-18 09:14:00,30.6,18.3,30.42,NW,305,0.0,2.0,60,0.00,,,0.00,meteohub,2013-02-18 14:14:00,
2013-02-18 09:19:00,32.0,19.2,30.42,SSE,158,0.0,2.0,59,0.00,,,0.00,meteohub,2013-02-18 14:19:00,
2013-02-18 09:24:00,33.6,18.7,30.42,SE,134,1.0,2.0,54,0.00,,,0.00,meteohub,2013-02-18 14:24:00,
2013-02-18 09:29:00,34.3,18.1,30.42,South,187,0.0,1.0,51,0.00,,,0.00,meteohub,2013-02-18 14:29:00,
2013-02-18 09:34:00,34.2,18.3,30.42,SSE,148,0.0,2.0,52,0.00,,,0.00,meteohub,2013-02-18 14:34:00,
2013-02-18 09:39:00,34.5,18.3,30.42,ESE,120,0.0,2.0,51,0.00,,,0.00,meteohub,2013-02-18 14:39:00,
2013-02-18 09:44:00,34.9,18.1,30.42,SW,229,0.0,2.0,50,0.00,,,0.00,meteohub,2013-02-18 14:44:00,
2013-02-18 09:49:00,36.0,18.1,30.42,SE,132,0.0,2.0,48,0.00,,,0.00,meteohub,2013-02-18 14:49:00,
2013-02-18 09:54:00,36.9,18.5,30.42,SSE,155,0.0,2.0,47,0.00,,,0.00,meteohub,2013-02-18 14:54:00,
2013-02-18 09:59:00,37.2,18.3,30.42,East,100,0.0,2.0,46,0.00,,,0.00,meteohub,2013-02-18 14:59:00,
2013-02-18 10:04:00,37.9,19.0,30.42,SE,128,0.0,2.0,46,0.00,,,0.00,meteohub,2013-02-18 15:04:00,
2013-02-18 10:09:00,38.1,18.1,30.42,NNW,328,1.0,2.0,44,0.00,,,0.00,meteohub,2013-02-18 15:09:00,
2013-02-18 10:14:00,38.3,17.2,30.42,ENE,60,2.0,2.0,42,0.00,,,0.00,meteohub,2013-02-18 15:14:00,
2013-02-18 10:19:00,38.1,18.1,30.41,NE,47,1.0,2.0,44,0.00,,,0.00,meteohub,2013-02-18 15:19:00,
2013-02-18 10:24:00,39.2,19.0,30.41,SE,127,2.0,3.0,44,0.00,,,0.00,meteohub,2013-02-18 15:24:00,
2013-02-18 10:29:00,39.9,19.2,30.41,SE,138,0.0,3.0,43,0.00,,,0.00,meteohub,2013-02-18 15:29:00,
2013-02-18 10:34:00,40.8,18.9,30.41,SSE,161,1.0,3.0,41,0.00,,,0.00,meteohub,2013-02-18 15:34:00,
2013-02-18 10:39:00,41.5,19.6,30.41,East,97,3.0,3.0,41,0.00,,,0.00,meteohub,2013-02-18 15:39:00,
2013-02-18 10:44:00,42.3,20.8,30.40,East,79,0.0,3.0,42,0.00,,,0.00,meteohub,2013-02-18 15:44:00,
2013-02-18 10:49:00,43.0,20.3,30.40,West,260,4.0,4.0,40,0.00,,,0.00,meteohub,2013-02-18 15:49:00,
2013-02-18 10:55:00,42.8,21.4,30.40,WSW,255,0.0,4.0,42,0.00,,,0.00,meteohub,2013-02-18 15:55:00,
2013-02-18 11:00:00,43.5,21.4,30.40,ESE,106,2.0,7.0,41,0.00,,,0.00,meteohub,2013-02-18 16:00:00,
2013-02-18 11:05:00,44.1,21.9,30.40,ENE,77,0.0,7.0,41,0.00,,,0.00,meteohub,2013-02-18 16:05:00,
2013-02-18 11:10:00,44.8,21.4,30.40,NNW,330,1.0,5.0,39,0.01,,,0.01,meteohub,2013-02-18 16:10:00,
2013-02-18 11:15:00,44.4,21.0,30.40,SW,230,3.0,5.0,39,0.01,,,0.01,meteohub,2013-02-18 16:15:00,
2013-02-18 11:20:00,45.1,21.7,30.40,SE,129,1.0,5.0,39,0.01,,,0.01,meteohub,2013-02-18 16:20:00,
2013-02-18 11:25:00,45.5,21.9,30.40,SE,146,4.0,8.0,39,0.01,,,0.01,meteohub,2013-02-18 16:25:00,
2013-02-18 11:30:00,45.7,22.1,30.39,SW,222,3.0,8.0,39,0.01,,,0.01,meteohub,2013-02-18 16:30:00,
2013-02-18 11:35:00,46.6,21.7,30.39,NW,315,2.0,8.0,37,0.01,,,0.01,meteohub,2013-02-18 16:35:00,
2013-02-18 11:40:00,46.2,22.6,30.39,WNW,290,2.0,8.0,39,0.01,,,0.01,meteohub,2013-02-18 16:40:00,
2013-02-18 11:45:00,46.9,22.6,30.39,SE,142,4.0,8.0,38,0.01,,,0.01,meteohub,2013-02-18 16:45:00,
2013-02-18 11:50:00,46.2,21.9,30.39,East,90,2.0,8.0,38,0.01,,,0.01,meteohub,2013-02-18 16:50:00,
2013-02-18 11:55:00,47.5,22.5,30.38,SW,226,5.0,11.0,37,0.01,,,0.01,meteohub,2013-02-18 16:55:00,
2013-02-18 12:00:00,46.9,22.1,30.38,NNE,32,1.0,11.0,37,0.00,,,0.01,meteohub,2013-02-18 17:00:00,
2013-02-18 12:05:00,46.9,22.1,30.38,West,263,5.0,11.0,37,0.00,,,0.01,meteohub,2013-02-18 17:05:00,
2013-02-18 12:10:00,47.1,22.1,30.38,South,177,4.0,9.0,37,0.00,,,0.01,meteohub,2013-02-18 17:10:00,
2013-02-18 12:15:00,46.6,21.7,30.38,SW,219,5.0,10.0,37,0.00,,,0.01,meteohub,2013-02-18 17:15:00,
2013-02-18 12:20:00,46.8,21.2,30.38,NNE,24,1.0,10.0,36,0.00,,,0.01,meteohub,2013-02-18 17:20:00,
2013-02-18 12:25:00,46.9,22.6,30.37,NW,319,5.0,10.0,38,0.00,,,0.01,meteohub,2013-02-18 17:25:00,
2013-02-18 12:30:00,46.9,22.1,30.37,South,187,4.0,9.0,37,0.00,,,0.01,meteohub,2013-02-18 17:30:00,
2013-02-18 12:35:00,46.8,21.2,30.37,SSW,203,9.0,11.0,36,0.00,,,0.01,meteohub,2013-02-18 17:35:00,
2013-02-18 12:40:00,46.9,22.1,30.37,SSW,195,4.0,12.0,37,0.00,,,0.01,meteohub,2013-02-18 17:40:00,
2013-02-18 12:46:00,47.8,23.5,30.37,East,93,1.0,12.0,38,0.00,,,0.01,meteohub,2013-02-18 17:46:00,
2013-02-18 12:51:00,48.4,22.6,30.37,SSW,203,4.0,9.0,36,0.00,,,0.01,meteohub,2013-02-18 17:51:00,
2013-02-18 12:56:00,48.2,21.7,30.37,SW,217,1.0,9.0,35,0.00,,,0.01,meteohub,2013-02-18 17:56:00,
2013-02-18 13:01:00,48.2,21.7,30.37,West,269,1.0,9.0,35,0.00,,,0.01,meteohub,2013-02-18 18:01:00,
2013-02-18 13:06:00,47.8,22.1,30.36,SSE,149,3.0,10.0,36,0.00,,,0.01,meteohub,2013-02-18 18:06:00,
2013-02-18 13:11:00,47.5,21.9,30.36,SE,138,4.0,10.0,36,0.00,,,0.01,meteohub,2013-02-18 18:11:00,
2013-02-18 13:16:00,47.1,22.1,30.35,WSW,239,10.0,10.0,37,0.00,,,0.01,meteohub,2013-02-18 18:16:00,
2013-02-18 13:21:00,47.1,21.6,30.35,South,169,4.0,10.0,36,0.00,,,0.01,meteohub,2013-02-18 18:21:00,
2013-02-18 13:26:00,47.5,21.9,30.34,SSW,208,4.0,10.0,36,0.00,,,0.01,meteohub,2013-02-18 18:26:00,
2013-02-18 13:31:00,47.3,21.7,30.34,South,191,3.0,10.0,36,0.00,,,0.01,meteohub,2013-02-18 18:31:00,
2013-02-18 13:36:00,47.7,22.1,30.34,West,259,5.0,10.0,36,0.00,,,0.01,meteohub,2013-02-18 18:36:00,
2013-02-18 13:41:00,48.0,23.0,30.33,ESE,102,3.0,10.0,37,0.00,,,0.01,meteohub,2013-02-18 18:41:00,
2013-02-18 13:46:00,48.9,23.2,30.33,NW,315,2.0,10.0,36,0.00,,,0.01,meteohub,2013-02-18 18:46:00,
2013-02-18 13:51:00,49.1,22.6,30.33,SW,232,7.0,10.0,35,0.00,,,0.01,meteohub,2013-02-18 18:51:00,
2013-02-18 13:56:00,49.6,23.7,30.33,WSW,240,3.0,10.0,36,0.00,,,0.01,meteohub,2013-02-18 18:56:00,
2013-02-18 14:01:00,49.3,22.1,30.34,WSW,252,6.0,9.0,34,0.00,,,0.01,meteohub,2013-02-18 19:01:00,
2013-02-18 14:06:00,49.3,22.8,30.33,North,352,1.0,10.0,35,0.00,,,0.01,meteohub,2013-02-18 19:06:00,
2013-02-18 14:11:00,49.6,21.7,30.33,SW,222,10.0,10.0,33,0.00,,,0.01,meteohub,2013-02-18 19:11:00,
2013-02-18 14:16:00,50.0,23.4,30.33,ESE,116,2.0,11.0,35,0.00,,,0.01,meteohub,2013-02-18 19:16:00,
2013-02-18 14:21:00,49.8,22.6,30.32,SW,224,6.0,11.0,34,0.00,,,0.01,meteohub,2013-02-18 19:21:00,
2013-02-18 14:27:00,49.1,21.9,30.32,ESE,121,5.0,11.0,34,0.00,,,0.01,meteohub,2013-02-18 19:27:00,
2013-02-18 14:32:00,49.3,22.8,30.32,SE,133,6.0,13.0,35,0.00,,,0.01,meteohub,2013-02-18 19:32:00,
2013-02-18 14:37:00,49.8,21.9,30.32,SSE,166,8.0,13.0,33,0.00,,,0.01,meteohub,2013-02-18 19:37:00,
2013-02-18 14:42:00,49.5,22.3,30.32,SW,214,7.0,13.0,34,0.00,,,0.01,meteohub,2013-02-18 19:42:00,
2013-02-18 14:47:00,50.4,22.3,30.32,SSW,207,1.0,12.0,33,0.00,,,0.01,meteohub,2013-02-18 19:47:00,
2013-02-18 14:52:00,50.7,21.9,30.32,SE,131,1.0,12.0,32,0.00,,,0.01,meteohub,2013-02-18 19:52:00,
2013-02-18 14:57:00,49.3,22.8,30.32,East,86,4.0,12.0,35,0.00,,,0.01,meteohub,2013-02-18 19:57:00,
2013-02-18 15:02:00,49.3,22.1,30.32,SSE,152,4.0,14.0,34,0.00,,,0.01,meteohub,2013-02-18 20:02:00,
2013-02-18 15:07:00,49.3,22.8,30.31,WSW,250,3.0,14.0,35,0.00,,,0.01,meteohub,2013-02-18 20:07:00,
2013-02-18 15:12:00,49.5,23.5,30.31,South,186,5.0,14.0,36,0.00,,,0.01,meteohub,2013-02-18 20:12:00,
2013-02-18 15:17:00,49.5,22.3,30.31,SSE,162,4.0,12.0,34,0.00,,,0.01,meteohub,2013-02-18 20:17:00,
2013-02-18 15:22:00,49.3,22.1,30.31,SSE,148,11.0,11.0,34,0.00,,,0.01,meteohub,2013-02-18 20:22:00,
2013-02-18 15:27:00,49.5,23.0,30.30,SE,136,8.0,13.0,35,0.00,,,0.01,meteohub,2013-02-18 20:27:00,
2013-02-18 15:32:00,49.1,23.9,30.30,South,173,6.0,13.0,37,0.00,,,0.01,meteohub,2013-02-18 20:32:00,
2013-02-18 15:37:00,49.5,23.0,30.30,East,94,6.0,13.0,35,0.00,,,0.01,meteohub,2013-02-18 20:37:00,
2013-02-18 15:42:00,49.6,23.7,30.30,SW,219,1.0,15.0,36,0.00,,,0.01,meteohub,2013-02-18 20:42:00,
2013-02-18 15:47:00,49.8,23.2,30.30,SSE,166,4.0,15.0,35,0.00,,,0.01,meteohub,2013-02-18 20:47:00,
2013-02-18 15:52:00,49.6,23.7,30.30,WSW,258,8.0,15.0,36,0.00,,,0.01,meteohub,2013-02-18 20:52:00,
2013-02-18 15:57:00,49.3,23.5,30.30,SSE,162,5.0,15.0,36,0.00,,,0.01,meteohub,2013-02-18 20:57:00,
2013-02-18 16:02:00,49.3,23.5,30.30,SW,222,6.0,15.0,36,0.00,,,0.01,meteohub,2013-02-18 21:02:00,
2013-02-18 16:07:00,49.1,23.4,30.30,ENE,60,1.0,14.0,36,0.00,,,0.01,meteohub,2013-02-18 21:07:00,
2013-02-18 16:12:00,48.9,23.2,30.30,SSW,200,7.0,14.0,36,0.00,,,0.01,meteohub,2013-02-18 21:12:00,
2013-02-18 16:17:00,49.3,22.8,30.30,East,82,4.0,14.0,35,0.00,,,0.01,meteohub,2013-02-18 21:17:00,
2013-02-18 16:22:00,49.1,23.4,30.30,SSE,163,8.0,14.0,36,0.00,,,0.01,meteohub,2013-02-18 21:22:00,
2013-02-18 16:27:00,48.9,23.2,30.30,SE,143,1.0,10.0,36,0.00,,,0.01,meteohub,2013-02-18 21:27:00,
2013-02-18 16:32:00,48.9,23.7,30.30,SSW,197,1.0,13.0,37,0.00,,,0.01,meteohub,2013-02-18 21:32:00,
2013-02-18 16:37:00,48.6,23.5,30.30,WSW,256,6.0,13.0,37,0.00,,,0.01,meteohub,2013-02-18 21:37:00,
2013-02-18 16:42:00,48.0,23.5,30.30,SSW,198,6.0,11.0,38,0.00,,,0.01,meteohub,2013-02-18 21:42:00,
2013-02-18 16:47:00,48.0,23.5,30.30,SSW,194,5.0,12.0,38,0.00,,,0.01,meteohub,2013-02-18 21:47:00,
2013-02-18 16:52:00,48.2,23.7,30.29,SSE,149,3.0,12.0,38,0.00,,,0.01,meteohub,2013-02-18 21:52:00,
2013-02-18 16:57:00,48.4,23.9,30.29,NW,310,3.0,12.0,38,0.00,,,0.01,meteohub,2013-02-18 21:57:00,
2013-02-18 17:02:00,48.2,23.7,30.29,WSW,253,4.0,9.0,38,0.00,,,0.01,meteohub,2013-02-18 22:02:00,
2013-02-18 17:07:00,47.7,23.9,30.29,West,262,6.0,11.0,39,0.00,,,0.01,meteohub,2013-02-18 22:07:00,
2013-02-18 17:12:00,47.7,23.9,30.29,North,3,1.0,14.0,39,0.00,,,0.01,meteohub,2013-02-18 22:12:00,
2013-02-18 17:17:00,47.5,23.7,30.29,SSW,207,0.0,14.0,39,0.00,,,0.01,meteohub,2013-02-18 22:17:00,
2013-02-18 17:22:00,47.3,24.3,30.29,SSW,200,3.0,12.0,40,0.00,,,0.01,meteohub,2013-02-18 22:22:00,
2013-02-18 17:27:00,46.9,23.9,30.29,SSE,163,2.0,12.0,40,0.00,,,0.01,meteohub,2013-02-18 22:27:00,
2013-02-18 17:32:00,46.9,24.4,30.29,South,173,0.0,9.0,41,0.00,,,0.01,meteohub,2013-02-18 22:32:00,
2013-02-18 17:37:00,46.9,23.9,30.29,SE,132,1.0,9.0,40,0.00,,,0.01,meteohub,2013-02-18 22:37:00,
2013-02-18 17:42:00,46.6,23.5,30.29,SSE,163,2.0,6.0,40,0.00,,,0.01,meteohub,2013-02-18 22:42:00,
2013-02-18 17:47:00,46.0,23.7,30.29,West,260,1.0,6.0,41,0.00,,,0.01,meteohub,2013-02-18 22:47:00,
2013-02-18 17:52:00,45.3,23.5,30.29,SSW,208,2.0,5.0,42,0.00,,,0.01,meteohub,2013-02-18 22:52:00,
2013-02-18 17:57:00,44.8,23.0,30.29,SSW,200,2.0,7.0,42,0.00,,,0.01,meteohub,2013-02-18 22:57:00,
2013-02-18 18:02:00,44.2,23.2,30.29,SSE,160,8.0,8.0,43,0.00,,,0.01,meteohub,2013-02-18 23:02:00,
2013-02-18 18:07:00,43.9,22.8,30.29,NW,312,0.0,10.0,43,0.00,,,0.01,meteohub,2013-02-18 23:07:00,
2013-02-18 18:12:00,43.5,23.0,30.29,SE,139,0.0,10.0,44,0.00,,,0.01,meteohub,2013-02-18 23:12:00,
2013-02-18 18:17:00,43.2,23.2,30.29,SE,129,0.0,10.0,45,0.00,,,0.01,meteohub,2013-02-18 23:17:00,
2013-02-18 18:22:00,42.8,23.0,30.29,SSE,160,0.0,7.0,45,0.00,,,0.01,meteohub,2013-02-18 23:22:00,
2013-02-18 18:27:00,42.3,23.0,30.29,South,170,1.0,5.0,46,0.00,,,0.01,meteohub,2013-02-18 23:27:00,
2013-02-18 18:32:00,41.9,22.6,30.29,SSW,194,0.0,5.0,46,0.00,,,0.01,meteohub,2013-02-18 23:32:00,
2013-02-18 18:37:00,41.5,22.8,30.29,SE,128,1.0,4.0,47,0.00,,,0.01,meteohub,2013-02-18 23:37:00,
2013-02-18 18:42:00,41.2,22.5,30.29,SE,136,1.0,4.0,47,0.00,,,0.01,meteohub,2013-02-18 23:42:00,
2013-02-18 18:47:00,41.0,22.8,30.29,ESE,121,1.0,2.0,48,0.00,,,0.01,meteohub,2013-02-18 23:47:00,
2013-02-18 18:52:00,40.8,22.6,30.29,SE,141,0.0,5.0,48,0.00,,,0.01,meteohub,2013-02-18 23:52:00,
2013-02-18 18:57:00,40.5,22.8,30.29,SSW,201,0.0,5.0,49,0.00,,,0.01,meteohub,2013-02-18 23:57:00,
2013-02-18 19:02:00,39.9,22.3,30.29,South,176,0.0,5.0,49,0.00,,,0.01,meteohub,2013-02-19 00:02:00,
2013-02-18 19:07:00,39.6,22.5,30.29,SE,135,0.0,4.0,50,0.00,,,0.00,meteohub,2013-02-19 00:07:00,
2013-02-18 19:12:00,39.6,23.0,30.29,SE,136,0.0,4.0,51,0.00,,,0.00,meteohub,2013-02-19 00:12:00,
2013-02-18 19:17:00,39.2,22.6,30.28,SE,124,0.0,4.0,51,0.00,,,0.00,meteohub,2013-02-19 00:17:00,
2013-02-18 19:22:00,38.8,22.3,30.28,SW,218,0.0,2.0,51,0.00,,,0.00,meteohub,2013-02-19 00:22:00,
2013-02-18 19:28:00,38.5,22.5,30.28,ESE,117,0.0,2.0,52,0.00,,,0.00,meteohub,2013-02-19 00:28:00,
2013-02-18 19:33:00,38.1,22.5,30.28,SSW,196,0.0,2.0,53,0.00,,,0.00,meteohub,2013-02-19 00:33:00,
2013-02-18 19:38:00,38.1,22.5,30.28,SSW,198,0.0,2.0,53,0.00,,,0.00,meteohub,2013-02-19 00:38:00,
2013-02-18 19:43:00,37.9,22.3,30.28,SSW,196,0.0,2.0,53,0.00,,,0.00,meteohub,2013-02-19 00:43:00,
2013-02-18 19:48:00,37.8,22.1,30.28,South,176,0.0,3.0,53,0.00,,,0.00,meteohub,2013-02-19 00:48:00,
2013-02-18 19:53:00,37.9,22.3,30.27,WSW,248,0.0,3.0,53,0.00,,,0.00,meteohub,2013-02-19 00:53:00,
2013-02-18 19:58:00,37.8,22.1,30.27,East,97,0.0,4.0,53,0.00,,,0.00,meteohub,2013-02-19 00:58:00,
2013-02-18 20:03:00,37.4,22.3,30.27,SSE,153,0.0,4.0,54,0.00,,,0.00,meteohub,2013-02-19 01:03:00,
2013-02-18 20:08:00,37.0,22.5,30.27,South,177,0.0,3.0,55,0.00,,,0.00,meteohub,2013-02-19 01:08:00,
2013-02-18 20:13:00,37.0,22.5,30.27,SSE,159,0.0,2.0,55,0.00,,,0.00,meteohub,2013-02-19 01:13:00,
2013-02-18 20:18:00,37.0,22.5,30.27,SSW,195,2.0,4.0,55,0.00,,,0.00,meteohub,2013-02-19 01:18:00,
2013-02-18 20:23:00,37.2,22.5,30.27,SSE,151,1.0,4.0,55,0.00,,,0.00,meteohub,2013-02-19 01:23:00,
2013-02-18 20:28:00,37.4,22.6,30.27,SE,143,3.0,5.0,55,0.00,,,0.00,meteohub,2013-02-19 01:28:00,
2013-02-18 20:33:00,37.6,22.8,30.27,SE,134,2.0,5.0,55,0.00,,,0.00,meteohub,2013-02-19 01:33:00,
2013-02-18 20:38:00,37.6,22.5,30.27,WSW,243,0.0,3.0,54,0.00,,,0.00,meteohub,2013-02-19 01:38:00,
2013-02-18 20:43:00,37.9,22.8,30.27,SW,229,0.0,6.0,54,0.00,,,0.00,meteohub,2013-02-19 01:43:00,
2013-02-18 20:48:00,37.8,22.6,30.28,SSW,193,1.0,6.0,54,0.00,,,0.00,meteohub,2013-02-19 01:48:00,
2013-02-18 20:53:00,37.8,23.0,30.27,South,169,4.0,6.0,55,0.00,,,0.00,meteohub,2013-02-19 01:53:00,
2013-02-18 20:58:00,38.1,23.0,30.28,ENE,76,1.0,5.0,54,0.00,,,0.00,meteohub,2013-02-19 01:58:00,
2013-02-18 21:03:00,38.1,23.0,30.28,SE,145,2.0,7.0,54,0.00,,,0.00,meteohub,2013-02-19 02:03:00,
2013-02-18 21:08:00,38.3,23.2,30.27,SSE,153,1.0,7.0,54,0.00,,,0.00,meteohub,2013-02-19 02:08:00,
2013-02-18 21:13:00,38.1,23.4,30.28,ESE,103,0.0,7.0,55,0.00,,,0.00,meteohub,2013-02-19 02:13:00,
2013-02-18 21:18:00,38.1,23.0,30.28,SSE,156,0.0,7.0,54,0.00,,,0.00,meteohub,2013-02-19 02:18:00,
2013-02-18 21:23:00,38.1,23.4,30.28,SE,138,1.0,7.0,55,0.00,,,0.00,meteohub,2013-02-19 02:23:00,
2013-02-18 21:28:00,38.1,23.4,30.27,SE,138,3.0,6.0,55,0.00,,,0.00,meteohub,2013-02-19 02:28:00,
2013-02-18 21:34:00,38.1,23.4,30.27,SE,138,0.0,5.0,55,0.00,,,0.00,meteohub,2013-02-19 02:34:00,
2013-02-18 21:39:00,37.9,23.2,30.27,SE,145,1.0,5.0,55,0.00,,,0.00,meteohub,2013-02-19 02:39:00,
2013-02-18 21:44:00,37.9,23.7,30.27,ESE,104,1.0,5.0,56,0.00,,,0.00,meteohub,2013-02-19 02:44:00,
2013-02-18 21:49:00,37.9,23.7,30.26,ESE,103,1.0,3.0,56,0.00,,,0.00,meteohub,2013-02-19 02:49:00,
2013-02-18 21:54:00,37.8,23.5,30.26,ESE,117,2.0,4.0,56,0.00,,,0.00,meteohub,2013-02-19 02:54:00,
2013-02-18 21:59:00,37.9,24.1,30.26,SSE,148,0.0,5.0,57,0.00,,,0.00,meteohub,2013-02-19 02:59:00,
2013-02-18 22:04:00,37.6,23.7,30.25,SE,139,1.0,6.0,57,0.00,,,0.00,meteohub,2013-02-19 03:04:00,
2013-02-18 22:09:00,37.6,23.7,30.25,SE,145,7.0,7.0,57,0.00,,,0.00,meteohub,2013-02-19 03:09:00,
2013-02-18 22:14:00,37.6,23.7,30.25,SSW,212,1.0,6.0,57,0.00,,,0.00,meteohub,2013-02-19 03:14:00,
2013-02-18 22:19:00,37.6,23.7,30.25,SE,140,5.0,8.0,57,0.00,,,0.00,meteohub,2013-02-19 03:19:00,
2013-02-18 22:24:00,37.6,23.7,30.25,SSE,151,2.0,11.0,57,0.00,,,0.00,meteohub,2013-02-19 03:24:00,
2013-02-18 22:29:00,37.4,23.5,30.25,WSW,252,1.0,11.0,57,0.00,,,0.00,meteohub,2013-02-19 03:29:00,
2013-02-18 22:34:00,37.2,23.4,30.25,SSE,159,2.0,11.0,57,0.00,,,0.00,meteohub,2013-02-19 03:34:00,
2013-02-18 22:39:00,37.2,23.4,30.25,ESE,117,2.0,8.0,57,0.00,,,0.00,meteohub,2013-02-19 03:39:00,
2013-02-18 22:44:00,37.2,23.4,30.25,ESE,117,2.0,8.0,57,0.00,,,0.00,meteohub,2013-02-19 03:44:00,
2013-02-18 22:49:00,37.2,23.4,30.25,South,190,1.0,7.0,57,0.00,,,0.00,meteohub,2013-02-19 03:49:00,
2013-02-18 22:54:00,37.2,23.7,30.25,SE,141,4.0,6.0,58,0.00,,,0.00,meteohub,2013-02-19 03:54:00,
2013-02-18 22:59:00,37.0,23.7,30.25,ESE,122,3.0,6.0,58,0.00,,,0.00,meteohub,2013-02-19 03:59:00,
2013-02-18 23:04:00,37.0,23.7,30.24,SE,143,1.0,8.0,58,0.00,,,0.00,meteohub,2013-02-19 04:04:00,
2013-02-18 23:09:00,37.0,23.7,30.24,SSW,196,0.0,10.0,58,0.00,,,0.00,meteohub,2013-02-19 04:09:00,
2013-02-18 23:15:00,36.9,23.5,30.24,SSE,150,3.0,10.0,58,0.00,,,0.00,meteohub,2013-02-19 04:15:00,
2013-02-18 23:20:00,37.0,23.7,30.23,SE,141,3.0,10.0,58,0.00,,,0.00,meteohub,2013-02-19 04:20:00,
2013-02-18 23:25:00,36.9,23.5,30.23,SE,138,2.0,7.0,58,0.00,,,0.00,meteohub,2013-02-19 04:25:00,
2013-02-18 23:30:00,36.9,23.5,30.24,SSE,158,2.0,6.0,58,0.00,,,0.00,meteohub,2013-02-19 04:30:00,
2013-02-18 23:35:00,37.0,23.7,30.24,SSW,196,3.0,6.0,58,0.00,,,0.00,meteohub,2013-02-19 04:35:00,
2013-02-18 23:40:00,37.0,23.7,30.24,ESE,114,2.0,7.0,58,0.00,,,0.00,meteohub,2013-02-19 04:40:00,
2013-02-18 23:45:00,37.0,24.1,30.23,ESE,117,0.0,7.0,59,0.00,,,0.00,meteohub,2013-02-19 04:45:00,
2013-02-18 23:50:00,37.2,23.7,30.23,SSW,198,2.0,7.0,58,0.00,,,0.00,meteohub,2013-02-19 04:50:00,
2013-02-18 23:55:00,37.2,23.7,30.23,South,183,3.0,7.0,58,0.00,,,0.00,meteohub,2013-02-19 04:55:00,